createdAt,value
2019-04-18T00:01:03.519Z,6.73
2019-04-18T00:06:05.998Z,6.37
2019-04-18T00:11:08.735Z,6.80
2019-04-18T00:16:11.451Z,5.53
2019-04-18T00:21:19.271Z,5.70
2019-04-18T00:26:18.814Z,5.50
2019-04-18T00:31:21.520Z,5.93
2019-04-18T00:36:24.235Z,5.93
2019-04-18T00:41:26.940Z,6.40
2019-04-18T00:46:29.671Z,5.93
2019-04-18T00:51:32.393Z,5.93
2019-04-18T00:56:37.550Z,6.47
2019-04-18T01:01:41.868Z,6.30
2019-04-18T01:06:44.386Z,6.10
2019-04-18T01:11:47.097Z,6.23
2019-04-18T01:16:49.828Z,6.70
2019-04-18T01:21:52.524Z,5.97
2019-04-18T01:26:55.227Z,6.80
2019-04-18T01:31:58.608Z,5.93
2019-04-18T01:37:02.987Z,6.63
2019-04-18T01:42:29.538Z,6.60
2019-04-18T01:47:32.995Z,6.23
2019-04-18T01:52:35.695Z,6.30
2019-04-18T01:57:38.402Z,6.27
2019-04-18T02:02:41.121Z,7.13
2019-04-18T02:07:45.475Z,6.60
2019-04-18T02:12:50.572Z,6.77
2019-04-18T02:17:53.374Z,6.40
2019-04-18T02:22:56.087Z,6.37
2019-04-18T02:27:59.659Z,6.10
2019-04-18T02:33:06.945Z,5.80
2019-04-18T02:38:07.555Z,6.43
2019-04-18T02:43:10.367Z,6.63
2019-04-18T02:48:13.516Z,6.77
2019-04-18T02:53:19.623Z,6.80
2019-04-18T02:58:31.303Z,6.80
2019-04-18T03:03:41.188Z,6.40
2019-04-18T03:08:42.932Z,6.70
2019-04-18T03:13:45.653Z,6.13
2019-04-18T03:18:48.395Z,6.50
2019-04-18T03:23:51.125Z,6.47
2019-04-18T03:28:53.840Z,7.23
2019-04-18T03:34:00.401Z,6.90
2019-04-18T03:39:01.138Z,6.57
2019-04-18T03:44:04.254Z,7.10
2019-04-18T03:49:09.124Z,6.80
2019-04-18T03:54:11.683Z,5.63
2019-04-18T03:59:18.557Z,6.90
2019-04-18T04:04:22.201Z,5.90
2019-04-18T04:09:23.659Z,6.10
2019-04-18T04:14:26.368Z,6.23
2019-04-18T04:19:30.061Z,5.63
2019-04-18T04:24:32.831Z,6.00
2019-04-18T04:29:39.103Z,5.40
2019-04-18T04:34:43.419Z,6.80
2019-04-18T04:39:44.835Z,5.70
2019-04-18T04:44:47.685Z,6.23
2019-04-18T04:49:50.651Z,5.33
2019-04-18T04:54:53.450Z,6.60
2019-04-18T05:00:08.882Z,5.30
2019-04-18T05:05:11.866Z,6.40
2019-04-18T05:10:15.564Z,5.27
2019-04-18T05:15:18.482Z,5.43
2019-04-18T05:20:21.299Z,5.30
2019-04-18T05:25:24.028Z,6.20
2019-04-18T05:30:26.735Z,6.10
2019-04-18T05:35:29.963Z,5.67
2019-04-18T05:40:36.359Z,4.90
2019-04-18T05:45:42.723Z,5.00
2019-04-18T05:50:55.567Z,6.20
2019-04-18T05:55:58.796Z,6.10
2019-04-18T06:01:17.421Z,6.07
2019-04-18T06:07:11.224Z,5.40
2019-04-18T06:12:04.532Z,6.50
2019-04-18T06:17:34.406Z,5.77
2019-04-18T06:22:36.370Z,6.43
2019-04-18T06:27:58.778Z,5.63
2019-04-18T06:33:12.410Z,6.53
2019-04-18T06:38:18.453Z,5.97
2019-04-18T06:43:24.501Z,6.60
2019-04-18T06:48:24.431Z,6.87
2019-04-18T06:53:27.151Z,6.53
2019-04-18T06:58:35.473Z,6.77
2019-04-18T07:03:34.500Z,7.53
2019-04-18T07:08:45.575Z,6.73
2019-04-18T07:13:55.803Z,6.53
2019-04-18T07:19:00.480Z,7.07
2019-04-18T07:24:01.435Z,7.60
2019-04-18T07:29:04.229Z,7.47
2019-04-18T07:34:08.601Z,8.27
2019-04-18T07:39:11.412Z,8.27
2019-04-18T07:44:19.767Z,7.43
2019-04-18T07:49:22.491Z,7.07
2019-04-18T07:54:25.217Z,7.87
2019-04-18T07:59:27.953Z,7.73
2019-04-18T08:04:30.675Z,7.67
2019-04-18T08:09:38.841Z,7.10
2019-04-18T08:14:44.921Z,8.20
2019-04-18T08:19:53.614Z,8.00
2019-04-18T08:24:57.885Z,7.50
2019-04-18T08:29:59.277Z,8.47
2019-04-18T08:35:02.114Z,8.27
2019-04-18T08:40:27.965Z,8.30
2019-04-18T08:45:39.794Z,8.20
2019-04-18T08:50:49.436Z,8.20
2019-04-18T08:55:53.189Z,8.37
2019-04-18T09:00:58.049Z,8.60
2019-04-18T09:06:02.078Z,9.33
2019-04-18T09:11:06.367Z,10.50
2019-04-18T09:16:12.338Z,9.77
2019-04-18T09:21:22.925Z,9.80
2019-04-18T09:26:21.199Z,10.07
2019-04-18T09:31:24.408Z,11.37
2019-04-18T09:36:31.065Z,11.40
2019-04-18T09:41:33.201Z,10.60
2019-04-18T09:46:39.225Z,11.20
2019-04-18T09:51:40.791Z,11.13
2019-04-18T09:56:43.550Z,11.80
2019-04-18T10:01:46.380Z,12.30
2019-04-18T10:06:49.848Z,11.33
2019-04-18T10:11:52.585Z,11.83
2019-04-18T10:16:55.356Z,11.20
2019-04-18T10:22:11.551Z,12.00
2019-04-18T10:27:27.655Z,11.90
2019-04-18T10:32:34.231Z,11.80
2019-04-18T10:37:37.076Z,11.10
2019-04-18T10:42:39.787Z,11.63
2019-04-18T10:47:51.342Z,11.80
2019-04-18T10:52:55.719Z,12.40
2019-04-18T10:57:58.954Z,12.10
2019-04-18T11:03:01.679Z,10.97
2019-04-18T11:08:04.513Z,10.30
2019-04-18T11:13:07.846Z,10.93
2019-04-18T11:18:11.147Z,10.57
2019-04-18T11:23:14.590Z,10.80
2019-04-18T11:28:17.493Z,10.30
2019-04-18T11:33:20.221Z,10.60
2019-04-18T11:38:22.934Z,11.23
2019-04-18T11:43:25.690Z,9.90
2019-04-18T11:48:28.414Z,9.33
2019-04-18T11:53:31.130Z,7.60
2019-04-18T11:58:33.837Z,8.20
2019-04-18T12:04:08.300Z,8.60
2019-04-18T12:09:11.480Z,9.87
2019-04-18T12:14:14.501Z,9.27
2019-04-18T12:19:17.350Z,9.90
2019-04-18T12:24:20.067Z,9.67
2019-04-18T12:29:22.809Z,9.20
2019-04-18T12:34:25.526Z,9.60
2019-04-18T12:39:29.593Z,9.60
2019-04-18T12:44:32.501Z,9.43
2019-04-18T12:49:35.204Z,10.90
2019-04-18T12:54:37.933Z,10.47
2019-04-18T12:59:40.656Z,10.40
2019-04-18T13:04:43.497Z,9.33
2019-04-18T13:09:52.314Z,10.00
2019-04-18T13:15:11.104Z,10.67
2019-04-18T13:20:13.927Z,9.50
2019-04-18T13:25:16.875Z,9.53
2019-04-18T13:30:21.083Z,9.60
2019-04-18T13:35:23.868Z,10.90
2019-04-18T13:40:26.788Z,10.60
2019-04-18T13:45:29.519Z,10.60
2019-04-18T13:50:32.229Z,10.13
2019-04-18T13:55:35.218Z,9.60
2019-04-18T14:00:38.944Z,10.53
2019-04-18T14:05:41.669Z,8.90
2019-04-18T14:10:44.392Z,11.40
2019-04-18T14:15:47.104Z,10.10
2019-04-18T14:20:49.848Z,12.10
2019-04-18T14:25:52.576Z,10.80
2019-04-18T14:30:55.293Z,10.23
2019-04-18T14:35:58.651Z,10.80
2019-04-18T14:41:02.332Z,10.43
2019-04-18T14:46:05.476Z,9.60
2019-04-18T14:51:08.586Z,10.20
2019-04-18T14:56:11.546Z,9.30
2019-04-18T15:01:14.350Z,9.53
2019-04-18T15:06:17.386Z,10.23
2019-04-18T15:11:20.245Z,10.57
2019-04-18T15:16:23.147Z,9.90
2019-04-18T15:21:25.867Z,10.10
2019-04-18T15:26:32.258Z,9.60
2019-04-18T15:31:35.092Z,10.10
2019-04-18T15:36:37.855Z,8.97
2019-04-18T15:41:40.783Z,10.13
2019-04-18T15:46:53.998Z,9.50
2019-04-18T15:51:56.701Z,9.27
2019-04-18T15:56:59.425Z,10.87
2019-04-18T16:02:02.169Z,9.80
2019-04-18T16:07:06.603Z,9.93
2019-04-18T16:12:09.324Z,9.63
2019-04-18T16:17:12.048Z,10.87
2019-04-18T16:22:14.686Z,8.90
2019-04-18T16:27:17.433Z,9.83
2019-04-18T16:32:20.241Z,8.80
2019-04-18T16:37:22.960Z,8.30
2019-04-18T16:42:30.812Z,8.63
2019-04-18T16:47:30.311Z,9.30
2019-04-18T16:52:33.135Z,8.87
2019-04-18T16:57:35.864Z,8.70
2019-04-18T17:02:38.647Z,8.80
2019-04-18T17:07:41.481Z,8.77
2019-04-18T17:12:44.199Z,8.60
2019-04-18T17:17:46.913Z,7.97
2019-04-18T17:22:50.630Z,9.20
2019-04-18T17:27:53.458Z,8.70
2019-04-18T17:32:56.183Z,8.03
2019-04-18T17:38:26.286Z,7.80
2019-04-18T17:43:08.055Z,8.47
2019-04-18T17:48:09.489Z,8.10
2019-04-18T17:53:24.304Z,7.30
2019-04-18T17:58:21.153Z,7.10
2019-04-18T18:03:35.617Z,7.53
2019-04-18T18:08:28.692Z,7.20
2019-04-18T18:13:31.459Z,7.00
2019-04-18T18:18:39.782Z,7.10
2019-04-18T18:23:45.499Z,6.83
2019-04-18T18:28:44.146Z,7.20
2019-04-18T18:33:50.932Z,6.60
2019-04-18T18:38:54.283Z,7.03
2019-04-18T18:44:01.475Z,7.10
2019-04-18T18:49:01.654Z,7.10
2019-04-18T18:54:05.125Z,6.53
2019-04-18T18:59:14.120Z,5.70
2019-04-18T19:04:16.683Z,5.87
2019-04-18T19:09:34.633Z,6.17
2019-04-18T19:14:30.916Z,6.97
2019-04-18T19:19:27.108Z,7.27
2019-04-18T19:24:29.871Z,6.70
2019-04-18T19:29:41.461Z,6.97
2019-04-18T19:34:37.770Z,7.33
2019-04-18T19:40:00.681Z,8.33
2019-04-18T19:44:45.199Z,9.70
2019-04-18T19:49:48.639Z,9.10
2019-04-18T19:54:51.688Z,8.53
2019-04-18T19:59:54.478Z,8.60
2019-04-18T20:04:59.445Z,8.50
2019-04-18T20:10:16.006Z,8.00
2019-04-18T20:15:08.138Z,7.50
2019-04-18T20:20:11.466Z,8.60
2019-04-18T20:25:15.470Z,8.90
2019-04-18T20:30:24.058Z,8.80
2019-04-18T20:35:30.290Z,8.83
2019-04-18T20:40:46.677Z,9.80
2019-04-18T20:45:46.183Z,7.53
2019-04-18T20:50:46.145Z,6.70
2019-04-18T20:55:52.905Z,5.80
2019-04-18T21:00:47.205Z,5.43
2019-04-18T21:05:51.031Z,5.40
2019-04-18T21:10:53.983Z,6.30
2019-04-18T21:16:03.815Z,5.93
2019-04-18T21:21:01.315Z,6.67
2019-04-18T21:26:09.644Z,5.77
2019-04-18T21:31:10.430Z,5.27
2019-04-18T21:36:19.454Z,4.90
2019-04-18T21:41:18.137Z,5.00
2019-04-18T21:46:21.047Z,5.50
2019-04-18T21:51:23.835Z,5.23
2019-04-18T21:56:27.506Z,4.90
2019-04-18T22:01:40.272Z,5.47
2019-04-18T22:06:47.596Z,5.77
2019-04-18T22:11:54.091Z,5.70
2019-04-18T22:16:50.077Z,6.20
2019-04-18T22:21:55.015Z,4.67
2019-04-18T22:27:00.330Z,5.40
2019-04-18T22:32:07.524Z,5.13
2019-04-18T22:37:07.528Z,5.20
2019-04-18T22:42:16.383Z,5.17
2019-04-18T22:47:17.941Z,5.87
2019-04-18T22:52:27.728Z,5.13
2019-04-18T22:57:29.830Z,4.70
2019-04-18T23:02:32.243Z,4.40
2019-04-18T23:07:46.781Z,4.87
2019-04-18T23:12:44.101Z,4.43
2019-04-18T23:17:43.981Z,4.90
2019-04-18T23:22:47.259Z,4.70
2019-04-18T23:27:50.402Z,4.37
2019-04-18T23:32:54.487Z,4.47
2019-04-18T23:38:02.827Z,3.97
2019-04-18T23:43:01.947Z,4.53
2019-04-18T23:48:05.630Z,4.03
2019-04-18T23:53:11.290Z,4.17
2019-04-18T23:58:14.666Z,4.77
